sensor_id;sensor_type;location;lat;lon;timestamp;P1;durP1;ratioP1;P2;durP2;ratioP2
64375;SDS011;50700;55.416;12.952;2023-04-01T00:00:22;4.88;;;2.10;;
64375;SDS011;50700;55.416;12.952;2023-04-01T00:02:49;3.00;;;2.22;;
64375;SDS011;50700;55.416;12.952;2023-04-01T00:05:15;3.30;;;2.13;;
64375;SDS011;50700;55.416;12.952;2023-04-01T00:07:42;3.75;;;2.75;;
64375;SDS011;50700;55.416;12.952;2023-04-01T00:10:09;3.20;;;2.20;;
64375;SDS011;50700;55.416;12.952;2023-04-01T00:12:35;4.22;;;2.05;;
64375;SDS011;50700;55.416;12.952;2023-04-01T00:15:02;2.33;;;1.92;;
64375;SDS011;50700;55.416;12.952;2023-04-01T00:17:29;3.75;;;2.50;;
64375;SDS011;50700;55.416;12.952;2023-04-01T00:19:55;3.00;;;2.13;;
64375;SDS011;50700;55.416;12.952;2023-04-01T00:22:22;3.17;;;2.53;;
64375;SDS011;50700;55.416;12.952;2023-04-01T00:24:48;3.17;;;2.25;;
64375;SDS011;50700;55.416;12.952;2023-04-01T00:27:14;2.75;;;2.00;;
64375;SDS011;50700;55.416;12.952;2023-04-01T00:29:45;3.25;;;2.10;;
64375;SDS011;50700;55.416;12.952;2023-04-01T00:32:13;3.55;;;2.25;;
64375;SDS011;50700;55.416;12.952;2023-04-01T00:34:39;4.80;;;2.33;;
64375;SDS011;50700;55.416;12.952;2023-04-01T00:37:06;4.75;;;2.30;;
64375;SDS011;50700;55.416;12.952;2023-04-01T00:39:32;3.67;;;2.35;;
64375;SDS011;50700;55.416;12.952;2023-04-01T00:41:59;2.80;;;2.20;;
64375;SDS011;50700;55.416;12.952;2023-04-01T00:44:27;4.15;;;2.33;;
64375;SDS011;50700;55.416;12.952;2023-04-01T00:46:55;2.75;;;2.08;;
64375;SDS011;50700;55.416;12.952;2023-04-01T00:49:22;3.47;;;2.40;;
64375;SDS011;50700;55.416;12.952;2023-04-01T00:51:50;2.92;;;2.17;;
64375;SDS011;50700;55.416;12.952;2023-04-01T00:54:17;3.75;;;2.17;;
64375;SDS011;50700;55.416;12.952;2023-04-01T00:56:51;3.47;;;2.35;;
64375;SDS011;50700;55.416;12.952;2023-04-01T00:59:23;4.25;;;2.42;;
64375;SDS011;50700;55.416;12.952;2023-04-01T01:01:50;2.50;;;1.88;;
64375;SDS011;50700;55.416;12.952;2023-04-01T01:04:32;3.67;;;2.75;;
64375;SDS011;50700;55.416;12.952;2023-04-01T01:09:49;4.03;;;2.67;;
64375;SDS011;50700;55.416;12.952;2023-04-01T01:12:13;4.32;;;2.60;;
64375;SDS011;50700;55.416;12.952;2023-04-01T01:14:44;5.28;;;2.42;;
64375;SDS011;50700;55.416;12.952;2023-04-01T01:17:19;5.07;;;2.65;;
64375;SDS011;50700;55.416;12.952;2023-04-01T01:19:55;5.38;;;2.88;;
64375;SDS011;50700;55.416;12.952;2023-04-01T01:24:58;5.00;;;3.10;;
64375;SDS011;50700;55.416;12.952;2023-04-01T01:27:31;4.50;;;2.83;;
64375;SDS011;50700;55.416;12.952;2023-04-01T01:30:19;7.30;;;2.80;;
64375;SDS011;50700;55.416;12.952;2023-04-01T01:32:54;3.90;;;3.05;;
64375;SDS011;50700;55.416;12.952;2023-04-01T01:35:35;3.53;;;2.30;;
64375;SDS011;50700;55.416;12.952;2023-04-01T01:38:05;4.22;;;2.75;;
64375;SDS011;50700;55.416;12.952;2023-04-01T01:40:33;3.83;;;2.53;;
64375;SDS011;50700;55.416;12.952;2023-04-01T01:43:03;4.13;;;2.95;;
64375;SDS011;50700;55.416;12.952;2023-04-01T01:45:30;3.50;;;2.60;;
64375;SDS011;50700;55.416;12.952;2023-04-01T01:47:58;5.10;;;2.60;;
64375;SDS011;50700;55.416;12.952;2023-04-01T01:50:24;5.07;;;2.78;;
64375;SDS011;50700;55.416;12.952;2023-04-01T01:52:59;4.03;;;2.90;;
64375;SDS011;50700;55.416;12.952;2023-04-01T01:55:32;5.88;;;3.17;;
64375;SDS011;50700;55.416;12.952;2023-04-01T01:58:00;3.95;;;2.55;;
64375;SDS011;50700;55.416;12.952;2023-04-01T02:00:28;5.53;;;2.53;;
64375;SDS011;50700;55.416;12.952;2023-04-01T02:02:55;6.43;;;3.22;;
64375;SDS011;50700;55.416;12.952;2023-04-01T02:05:26;5.10;;;2.90;;
64375;SDS011;50700;55.416;12.952;2023-04-01T02:07:57;8.02;;;3.58;;
64375;SDS011;50700;55.416;12.952;2023-04-01T02:10:25;5.18;;;2.50;;
64375;SDS011;50700;55.416;12.952;2023-04-01T02:12:53;7.00;;;3.05;;
64375;SDS011;50700;55.416;12.952;2023-04-01T02:15:22;6.20;;;3.50;;
64375;SDS011;50700;55.416;12.952;2023-04-01T02:17:51;6.70;;;3.17;;
64375;SDS011;50700;55.416;12.952;2023-04-01T02:20:19;5.18;;;3.10;;
64375;SDS011;50700;55.416;12.952;2023-04-01T02:22:48;5.70;;;3.30;;
64375;SDS011;50700;55.416;12.952;2023-04-01T02:25:20;6.05;;;3.20;;
64375;SDS011;50700;55.416;12.952;2023-04-01T02:27:46;3.85;;;2.83;;
64375;SDS011;50700;55.416;12.952;2023-04-01T02:30:13;5.63;;;2.95;;
64375;SDS011;50700;55.416;12.952;2023-04-01T02:32:40;5.22;;;3.15;;
64375;SDS011;50700;55.416;12.952;2023-04-01T02:35:08;5.00;;;3.38;;
64375;SDS011;50700;55.416;12.952;2023-04-01T02:37:36;5.30;;;3.55;;
64375;SDS011;50700;55.416;12.952;2023-04-01T02:40:03;4.13;;;2.78;;
64375;SDS011;50700;55.416;12.952;2023-04-01T02:42:33;4.65;;;3.08;;
64375;SDS011;50700;55.416;12.952;2023-04-01T02:44:59;5.05;;;3.20;;
64375;SDS011;50700;55.416;12.952;2023-04-01T02:47:25;5.68;;;3.83;;
64375;SDS011;50700;55.416;12.952;2023-04-01T02:49:52;9.40;;;3.63;;
64375;SDS011;50700;55.416;12.952;2023-04-01T02:52:24;7.45;;;3.33;;
64375;SDS011;50700;55.416;12.952;2023-04-01T02:54:50;4.78;;;3.08;;
64375;SDS011;50700;55.416;12.952;2023-04-01T02:57:16;5.85;;;2.80;;
64375;SDS011;50700;55.416;12.952;2023-04-01T02:59:43;7.00;;;3.22;;
64375;SDS011;50700;55.416;12.952;2023-04-01T03:02:09;5.80;;;3.55;;
64375;SDS011;50700;55.416;12.952;2023-04-01T03:04:35;7.22;;;3.58;;
64375;SDS011;50700;55.416;12.952;2023-04-01T03:07:01;8.50;;;3.72;;
64375;SDS011;50700;55.416;12.952;2023-04-01T03:09:28;4.70;;;2.75;;
64375;SDS011;50700;55.416;12.952;2023-04-01T03:11:54;5.22;;;2.90;;
64375;SDS011;50700;55.416;12.952;2023-04-01T03:14:20;6.75;;;3.00;;
64375;SDS011;50700;55.416;12.952;2023-04-01T03:16:46;5.03;;;3.25;;
64375;SDS011;50700;55.416;12.952;2023-04-01T03:19:12;3.63;;;2.80;;
64375;SDS011;50700;55.416;12.952;2023-04-01T03:21:39;4.70;;;2.95;;
64375;SDS011;50700;55.416;12.952;2023-04-01T03:24:05;5.10;;;2.97;;
64375;SDS011;50700;55.416;12.952;2023-04-01T03:26:31;7.68;;;3.40;;
64375;SDS011;50700;55.416;12.952;2023-04-01T03:28:57;5.97;;;3.20;;
64375;SDS011;50700;55.416;12.952;2023-04-01T03:31:24;5.95;;;3.10;;
64375;SDS011;50700;55.416;12.952;2023-04-01T03:33:50;4.10;;;2.88;;
64375;SDS011;50700;55.416;12.952;2023-04-01T03:36:16;4.60;;;2.88;;
64375;SDS011;50700;55.416;12.952;2023-04-01T03:38:43;4.35;;;3.25;;
64375;SDS011;50700;55.416;12.952;2023-04-01T03:41:13;5.57;;;3.38;;
64375;SDS011;50700;55.416;12.952;2023-04-01T03:43:39;9.63;;;3.10;;
64375;SDS011;50700;55.416;12.952;2023-04-01T03:46:05;5.97;;;3.13;;
64375;SDS011;50700;55.416;12.952;2023-04-01T03:48:31;10.15;;;3.40;;
64375;SDS011;50700;55.416;12.952;2023-04-01T03:50:58;9.75;;;3.47;;
64375;SDS011;50700;55.416;12.952;2023-04-01T03:53:24;7.63;;;3.45;;
64375;SDS011;50700;55.416;12.952;2023-04-01T03:55:50;6.00;;;3.10;;
64375;SDS011;50700;55.416;12.952;2023-04-01T03:58:16;5.57;;;3.03;;
64375;SDS011;50700;55.416;12.952;2023-04-01T04:00:43;4.47;;;2.95;;
64375;SDS011;50700;55.416;12.952;2023-04-01T04:03:09;4.88;;;3.33;;
64375;SDS011;50700;55.416;12.952;2023-04-01T04:05:35;5.15;;;2.95;;
64375;SDS011;50700;55.416;12.952;2023-04-01T04:08:02;5.43;;;2.70;;
64375;SDS011;50700;55.416;12.952;2023-04-01T04:10:28;7.95;;;3.05;;
64375;SDS011;50700;55.416;12.952;2023-04-01T04:12:55;3.85;;;2.70;;
64375;SDS011;50700;55.416;12.952;2023-04-01T04:15:21;6.47;;;3.33;;
64375;SDS011;50700;55.416;12.952;2023-04-01T04:17:48;5.85;;;3.15;;
64375;SDS011;50700;55.416;12.952;2023-04-01T04:20:14;3.47;;;2.60;;
64375;SDS011;50700;55.416;12.952;2023-04-01T04:22:41;3.35;;;2.83;;
64375;SDS011;50700;55.416;12.952;2023-04-01T04:25:07;4.53;;;2.65;;
64375;SDS011;50700;55.416;12.952;2023-04-01T04:27:34;5.32;;;3.38;;
64375;SDS011;50700;55.416;12.952;2023-04-01T04:30:00;4.68;;;3.05;;
64375;SDS011;50700;55.416;12.952;2023-04-01T04:32:26;7.00;;;3.30;;
64375;SDS011;50700;55.416;12.952;2023-04-01T04:34:52;4.90;;;3.10;;
64375;SDS011;50700;55.416;12.952;2023-04-01T04:37:19;9.05;;;3.67;;
64375;SDS011;50700;55.416;12.952;2023-04-01T04:39:45;4.70;;;2.92;;
64375;SDS011;50700;55.416;12.952;2023-04-01T04:42:11;6.88;;;2.90;;
64375;SDS011;50700;55.416;12.952;2023-04-01T04:44:37;4.18;;;3.05;;
64375;SDS011;50700;55.416;12.952;2023-04-01T04:47:04;7.78;;;3.22;;
64375;SDS011;50700;55.416;12.952;2023-04-01T04:49:31;5.03;;;2.60;;
64375;SDS011;50700;55.416;12.952;2023-04-01T04:51:57;6.35;;;3.03;;
64375;SDS011;50700;55.416;12.952;2023-04-01T04:54:23;7.20;;;3.00;;
64375;SDS011;50700;55.416;12.952;2023-04-01T04:56:51;3.92;;;2.85;;
64375;SDS011;50700;55.416;12.952;2023-04-01T04:59:17;4.50;;;2.72;;
64375;SDS011;50700;55.416;12.952;2023-04-01T05:01:43;6.53;;;3.05;;
64375;SDS011;50700;55.416;12.952;2023-04-01T05:04:10;7.00;;;3.15;;
64375;SDS011;50700;55.416;12.952;2023-04-01T05:06:36;5.43;;;3.03;;
64375;SDS011;50700;55.416;12.952;2023-04-01T05:09:02;6.65;;;2.90;;
64375;SDS011;50700;55.416;12.952;2023-04-01T05:11:29;3.60;;;2.75;;
64375;SDS011;50700;55.416;12.952;2023-04-01T05:13:55;2.85;;;2.50;;
64375;SDS011;50700;55.416;12.952;2023-04-01T05:16:21;3.78;;;2.67;;
64375;SDS011;50700;55.416;12.952;2023-04-01T05:18:48;8.00;;;3.42;;
64375;SDS011;50700;55.416;12.952;2023-04-01T05:21:14;6.20;;;2.90;;
64375;SDS011;50700;55.416;12.952;2023-04-01T05:23:41;7.53;;;3.45;;
64375;SDS011;50700;55.416;12.952;2023-04-01T05:26:09;5.35;;;3.30;;
64375;SDS011;50700;55.416;12.952;2023-04-01T05:28:36;6.70;;;2.90;;
64375;SDS011;50700;55.416;12.952;2023-04-01T05:31:03;5.15;;;3.22;;
64375;SDS011;50700;55.416;12.952;2023-04-01T05:33:30;7.07;;;2.90;;
64375;SDS011;50700;55.416;12.952;2023-04-01T05:35:56;4.20;;;2.63;;
64375;SDS011;50700;55.416;12.952;2023-04-01T05:38:23;5.22;;;2.90;;
64375;SDS011;50700;55.416;12.952;2023-04-01T05:40:49;9.20;;;3.08;;
64375;SDS011;50700;55.416;12.952;2023-04-01T05:43:15;3.85;;;2.75;;
64375;SDS011;50700;55.416;12.952;2023-04-01T05:45:41;3.80;;;2.70;;
64375;SDS011;50700;55.416;12.952;2023-04-01T05:48:08;3.55;;;2.67;;
64375;SDS011;50700;55.416;12.952;2023-04-01T05:50:34;3.45;;;2.70;;
64375;SDS011;50700;55.416;12.952;2023-04-01T05:53:00;5.70;;;2.85;;
64375;SDS011;50700;55.416;12.952;2023-04-01T05:55:26;4.72;;;2.83;;
64375;SDS011;50700;55.416;12.952;2023-04-01T05:57:52;4.07;;;2.78;;
64375;SDS011;50700;55.416;12.952;2023-04-01T06:00:18;4.90;;;2.78;;
64375;SDS011;50700;55.416;12.952;2023-04-01T06:02:45;4.57;;;2.58;;
64375;SDS011;50700;55.416;12.952;2023-04-01T06:05:13;3.78;;;2.70;;
64375;SDS011;50700;55.416;12.952;2023-04-01T06:07:41;4.00;;;2.80;;
64375;SDS011;50700;55.416;12.952;2023-04-01T06:10:14;3.83;;;2.60;;
64375;SDS011;50700;55.416;12.952;2023-04-01T06:15:31;5.28;;;2.80;;
64375;SDS011;50700;55.416;12.952;2023-04-01T06:23:36;6.18;;;3.05;;
64375;SDS011;50700;55.416;12.952;2023-04-01T06:26:12;3.33;;;2.45;;
64375;SDS011;50700;55.416;12.952;2023-04-01T06:28:46;4.25;;;2.47;;
64375;SDS011;50700;55.416;12.952;2023-04-01T06:34:01;6.10;;;2.15;;
64375;SDS011;50700;55.416;12.952;2023-04-01T06:41:55;4.40;;;2.60;;
64375;SDS011;50700;55.416;12.952;2023-04-01T06:44:29;5.28;;;2.35;;
64375;SDS011;50700;55.416;12.952;2023-04-01T06:49:48;3.50;;;2.35;;
64375;SDS011;50700;55.416;12.952;2023-04-01T06:54:44;3.72;;;1.98;;
64375;SDS011;50700;55.416;12.952;2023-04-01T06:57:28;4.47;;;1.55;;
64375;SDS011;50700;55.416;12.952;2023-04-01T06:59:56;3.90;;;2.08;;
64375;SDS011;50700;55.416;12.952;2023-04-01T07:02:37;3.97;;;2.00;;
64375;SDS011;50700;55.416;12.952;2023-04-01T07:05:05;3.45;;;2.03;;
64375;SDS011;50700;55.416;12.952;2023-04-01T07:09:58;3.00;;;1.60;;
64375;SDS011;50700;55.416;12.952;2023-04-01T07:15:24;3.10;;;1.83;;
64375;SDS011;50700;55.416;12.952;2023-04-01T07:17:55;4.57;;;1.80;;
64375;SDS011;50700;55.416;12.952;2023-04-01T07:20:24;3.00;;;1.75;;
64375;SDS011;50700;55.416;12.952;2023-04-01T07:22:56;2.35;;;1.70;;
64375;SDS011;50700;55.416;12.952;2023-04-01T07:25:25;3.38;;;1.77;;
64375;SDS011;50700;55.416;12.952;2023-04-01T07:27:52;2.88;;;1.70;;
64375;SDS011;50700;55.416;12.952;2023-04-01T07:30:20;3.40;;;1.63;;
64375;SDS011;50700;55.416;12.952;2023-04-01T07:33:01;2.80;;;1.50;;
64375;SDS011;50700;55.416;12.952;2023-04-01T07:46:38;2.78;;;1.60;;
64375;SDS011;50700;55.416;12.952;2023-04-01T07:51:01;4.90;;;1.50;;
64375;SDS011;50700;55.416;12.952;2023-04-01T07:55:58;4.40;;;1.80;;
64375;SDS011;50700;55.416;12.952;2023-04-01T08:06:11;2.28;;;1.60;;
64375;SDS011;50700;55.416;12.952;2023-04-01T08:13:44;4.07;;;1.90;;
64375;SDS011;50700;55.416;12.952;2023-04-01T08:18:57;4.03;;;1.35;;
64375;SDS011;50700;55.416;12.952;2023-04-01T08:21:32;2.63;;;1.65;;
64375;SDS011;50700;55.416;12.952;2023-04-01T08:24:06;5.00;;;1.83;;
64375;SDS011;50700;55.416;12.952;2023-04-01T08:26:44;5.38;;;1.42;;
64375;SDS011;50700;55.416;12.952;2023-04-01T08:29:16;2.30;;;1.23;;
64375;SDS011;50700;55.416;12.952;2023-04-01T08:31:51;3.63;;;1.35;;
64375;SDS011;50700;55.416;12.952;2023-04-01T08:34:41;2.60;;;1.50;;
64375;SDS011;50700;55.416;12.952;2023-04-01T08:40:13;2.72;;;1.50;;
64375;SDS011;50700;55.416;12.952;2023-04-01T08:42:37;1.43;;;1.03;;
64375;SDS011;50700;55.416;12.952;2023-04-01T08:45:21;1.70;;;1.20;;
64375;SDS011;50700;55.416;12.952;2023-04-01T08:52:42;1.88;;;1.30;;
64375;SDS011;50700;55.416;12.952;2023-04-01T08:55:20;1.80;;;1.15;;
64375;SDS011;50700;55.416;12.952;2023-04-01T09:12:50;1.65;;;1.10;;
64375;SDS011;50700;55.416;12.952;2023-04-01T09:15:36;3.88;;;0.93;;
64375;SDS011;50700;55.416;12.952;2023-04-01T09:21:08;1.48;;;1.13;;
64375;SDS011;50700;55.416;12.952;2023-04-01T09:23:47;1.08;;;1.00;;
64375;SDS011;50700;55.416;12.952;2023-04-01T09:27:00;2.95;;;1.27;;
64375;SDS011;50700;55.416;12.952;2023-04-01T09:32:02;2.15;;;1.25;;
64375;SDS011;50700;55.416;12.952;2023-04-01T09:43:02;2.00;;;1.20;;
64375;SDS011;50700;55.416;12.952;2023-04-01T09:53:34;1.10;;;1.00;;
64375;SDS011;50700;55.416;12.952;2023-04-01T09:58:33;1.65;;;1.20;;
64375;SDS011;50700;55.416;12.952;2023-04-01T10:01:29;3.17;;;1.00;;
64375;SDS011;50700;55.416;12.952;2023-04-01T10:29:28;1.00;;;0.90;;
64375;SDS011;50700;55.416;12.952;2023-04-01T10:37:16;1.35;;;0.90;;
64375;SDS011;50700;55.416;12.952;2023-04-01T11:05:45;2.15;;;0.82;;
64375;SDS011;50700;55.416;12.952;2023-04-01T11:11:13;2.40;;;1.00;;
64375;SDS011;50700;55.416;12.952;2023-04-01T11:32:43;1.30;;;1.10;;
64375;SDS011;50700;55.416;12.952;2023-04-01T11:40:44;0.98;;;0.85;;
64375;SDS011;50700;55.416;12.952;2023-04-01T11:46:11;0.95;;;0.95;;
64375;SDS011;50700;55.416;12.952;2023-04-01T11:48:44;1.08;;;0.73;;
64375;SDS011;50700;55.416;12.952;2023-04-01T11:54:28;0.65;;;0.57;;
64375;SDS011;50700;55.416;12.952;2023-04-01T12:10:15;0.70;;;0.53;;
64375;SDS011;50700;55.416;12.952;2023-04-01T12:15:25;1.33;;;0.75;;
64375;SDS011;50700;55.416;12.952;2023-04-01T12:23:16;1.60;;;0.88;;
64375;SDS011;50700;55.416;12.952;2023-04-01T12:28:22;0.98;;;0.60;;
64375;SDS011;50700;55.416;12.952;2023-04-01T12:30:54;0.60;;;0.60;;
64375;SDS011;50700;55.416;12.952;2023-04-01T12:33:29;1.10;;;0.80;;
64375;SDS011;50700;55.416;12.952;2023-04-01T12:36:05;0.93;;;0.80;;
64375;SDS011;50700;55.416;12.952;2023-04-01T12:41:03;1.40;;;0.65;;
64375;SDS011;50700;55.416;12.952;2023-04-01T13:02:12;0.68;;;0.65;;
64375;SDS011;50700;55.416;12.952;2023-04-01T13:05:10;1.33;;;0.80;;
64375;SDS011;50700;55.416;12.952;2023-04-01T13:07:53;0.75;;;0.70;;
64375;SDS011;50700;55.416;12.952;2023-04-01T13:16:08;1.42;;;0.88;;
64375;SDS011;50700;55.416;12.952;2023-04-01T13:26:13;1.00;;;0.70;;
64375;SDS011;50700;55.416;12.952;2023-04-01T13:28:47;0.68;;;0.60;;
64375;SDS011;50700;55.416;12.952;2023-04-01T13:36:28;0.50;;;0.50;;
64375;SDS011;50700;55.416;12.952;2023-04-01T13:38:59;0.65;;;0.65;;
64375;SDS011;50700;55.416;12.952;2023-04-01T13:46:46;1.42;;;0.70;;
64375;SDS011;50700;55.416;12.952;2023-04-01T13:54:23;0.98;;;0.77;;
64375;SDS011;50700;55.416;12.952;2023-04-01T14:12:19;1.00;;;0.60;;
64375;SDS011;50700;55.416;12.952;2023-04-01T14:25:10;1.05;;;0.90;;
64375;SDS011;50700;55.416;12.952;2023-04-01T14:27:56;2.25;;;0.98;;
64375;SDS011;50700;55.416;12.952;2023-04-01T14:30:32;0.98;;;0.75;;
64375;SDS011;50700;55.416;12.952;2023-04-01T14:33:06;0.88;;;0.88;;
64375;SDS011;50700;55.416;12.952;2023-04-01T14:35:41;0.82;;;0.60;;
64375;SDS011;50700;55.416;12.952;2023-04-01T14:43:14;1.95;;;0.82;;
64375;SDS011;50700;55.416;12.952;2023-04-01T14:48:33;0.88;;;0.60;;
64375;SDS011;50700;55.416;12.952;2023-04-01T14:51:08;1.13;;;0.82;;
64375;SDS011;50700;55.416;12.952;2023-04-01T14:53:36;1.48;;;0.90;;
64375;SDS011;50700;55.416;12.952;2023-04-01T14:56:04;1.75;;;0.60;;
64375;SDS011;50700;55.416;12.952;2023-04-01T14:58:41;1.52;;;0.60;;
64375;SDS011;50700;55.416;12.952;2023-04-01T15:13:53;3.88;;;1.02;;
64375;SDS011;50700;55.416;12.952;2023-04-01T15:26:42;2.63;;;0.90;;
64375;SDS011;50700;55.416;12.952;2023-04-01T15:29:28;1.13;;;1.00;;
64375;SDS011;50700;55.416;12.952;2023-04-01T15:47:23;3.42;;;0.90;;
64375;SDS011;50700;55.416;12.952;2023-04-01T15:50:11;1.30;;;1.20;;
64375;SDS011;50700;55.416;12.952;2023-04-01T15:57:56;1.95;;;1.00;;
64375;SDS011;50700;55.416;12.952;2023-04-01T16:00:30;1.92;;;0.88;;
64375;SDS011;50700;55.416;12.952;2023-04-01T16:08:49;1.42;;;0.85;;
64375;SDS011;50700;55.416;12.952;2023-04-01T16:24:13;3.60;;;0.95;;
64375;SDS011;50700;55.416;12.952;2023-04-01T16:29:27;3.08;;;1.00;;
64375;SDS011;50700;55.416;12.952;2023-04-01T16:32:14;1.67;;;0.77;;
64375;SDS011;50700;55.416;12.952;2023-04-01T16:34:47;0.73;;;0.73;;
64375;SDS011;50700;55.416;12.952;2023-04-01T16:37:21;1.77;;;0.70;;
64375;SDS011;50700;55.416;12.952;2023-04-01T16:39:50;2.05;;;0.73;;
64375;SDS011;50700;55.416;12.952;2023-04-01T16:44:50;2.45;;;0.90;;
64375;SDS011;50700;55.416;12.952;2023-04-01T16:47:19;1.90;;;0.70;;
64375;SDS011;50700;55.416;12.952;2023-04-01T16:52:15;1.00;;;0.68;;
64375;SDS011;50700;55.416;12.952;2023-04-01T16:54:51;1.90;;;0.75;;
64375;SDS011;50700;55.416;12.952;2023-04-01T16:57:30;1.23;;;0.88;;
64375;SDS011;50700;55.416;12.952;2023-04-01T16:59:59;2.85;;;0.90;;
64375;SDS011;50700;55.416;12.952;2023-04-01T17:02:36;1.27;;;0.70;;
64375;SDS011;50700;55.416;12.952;2023-04-01T17:05:10;1.92;;;0.77;;
64375;SDS011;50700;55.416;12.952;2023-04-01T17:07:56;3.80;;;1.13;;
64375;SDS011;50700;55.416;12.952;2023-04-01T17:15:43;2.90;;;1.10;;
64375;SDS011;50700;55.416;12.952;2023-04-01T17:18:23;1.98;;;0.80;;
64375;SDS011;50700;55.416;12.952;2023-04-01T17:23:38;2.15;;;0.80;;
64375;SDS011;50700;55.416;12.952;2023-04-01T17:26:21;1.38;;;0.70;;
64375;SDS011;50700;55.416;12.952;2023-04-01T17:28:56;1.77;;;0.80;;
64375;SDS011;50700;55.416;12.952;2023-04-01T17:36:44;1.25;;;1.15;;
64375;SDS011;50700;55.416;12.952;2023-04-01T17:44:16;1.50;;;0.70;;
64375;SDS011;50700;55.416;12.952;2023-04-01T17:51:42;2.72;;;1.40;;
64375;SDS011;50700;55.416;12.952;2023-04-01T17:54:44;2.30;;;1.13;;
64375;SDS011;50700;55.416;12.952;2023-04-01T17:59:57;1.33;;;0.95;;
64375;SDS011;50700;55.416;12.952;2023-04-01T18:02:31;4.03;;;1.05;;
64375;SDS011;50700;55.416;12.952;2023-04-01T18:10:24;1.20;;;1.10;;
64375;SDS011;50700;55.416;12.952;2023-04-01T18:15:56;1.55;;;1.10;;
64375;SDS011;50700;55.416;12.952;2023-04-01T18:23:28;3.95;;;1.67;;
64375;SDS011;50700;55.416;12.952;2023-04-01T18:26:04;2.22;;;1.42;;
64375;SDS011;50700;55.416;12.952;2023-04-01T18:33:31;2.90;;;1.35;;
64375;SDS011;50700;55.416;12.952;2023-04-01T18:38:36;3.47;;;1.60;;
64375;SDS011;50700;55.416;12.952;2023-04-01T18:41:14;3.22;;;1.50;;
64375;SDS011;50700;55.416;12.952;2023-04-01T18:49:07;2.05;;;1.70;;
64375;SDS011;50700;55.416;12.952;2023-04-01T18:51:39;3.42;;;1.90;;
64375;SDS011;50700;55.416;12.952;2023-04-01T18:54:17;5.00;;;3.17;;
64375;SDS011;50700;55.416;12.952;2023-04-01T18:56:47;4.90;;;2.17;;
64375;SDS011;50700;55.416;12.952;2023-04-01T18:59:25;4.68;;;2.40;;
64375;SDS011;50700;55.416;12.952;2023-04-01T19:06:57;4.43;;;1.50;;
64375;SDS011;50700;55.416;12.952;2023-04-01T19:09:29;3.72;;;1.40;;
64375;SDS011;50700;55.416;12.952;2023-04-01T19:17:13;1.40;;;1.10;;
64375;SDS011;50700;55.416;12.952;2023-04-01T19:19:46;1.20;;;1.10;;
64375;SDS011;50700;55.416;12.952;2023-04-01T19:24:49;5.22;;;1.67;;
64375;SDS011;50700;55.416;12.952;2023-04-01T19:35:17;2.25;;;1.20;;
64375;SDS011;50700;55.416;12.952;2023-04-01T19:43:04;1.40;;;1.10;;
64375;SDS011;50700;55.416;12.952;2023-04-01T19:58:16;1.23;;;1.05;;
64375;SDS011;50700;55.416;12.952;2023-04-01T20:00:46;3.85;;;0.80;;
64375;SDS011;50700;55.416;12.952;2023-04-01T20:03:23;2.22;;;0.80;;
64375;SDS011;50700;55.416;12.952;2023-04-01T20:08:20;3.75;;;0.90;;
64375;SDS011;50700;55.416;12.952;2023-04-01T20:11:24;1.75;;;1.00;;
64375;SDS011;50700;55.416;12.952;2023-04-01T20:16:15;5.20;;;1.33;;
64375;SDS011;50700;55.416;12.952;2023-04-01T20:18:47;1.75;;;1.05;;
64375;SDS011;50700;55.416;12.952;2023-04-01T20:21:18;3.17;;;1.35;;
64375;SDS011;50700;55.416;12.952;2023-04-01T20:26:25;4.75;;;1.38;;
64375;SDS011;50700;55.416;12.952;2023-04-01T20:29:07;1.98;;;0.90;;
64375;SDS011;50700;55.416;12.952;2023-04-01T20:31:44;1.83;;;1.52;;
64375;SDS011;50700;55.416;12.952;2023-04-01T20:42:27;1.20;;;1.00;;
64375;SDS011;50700;55.416;12.952;2023-04-01T20:58:05;1.00;;;0.70;;
64375;SDS011;50700;55.416;12.952;2023-04-01T21:03:10;0.93;;;0.70;;
64375;SDS011;50700;55.416;12.952;2023-04-01T21:16:03;1.17;;;0.50;;
64375;SDS011;50700;55.416;12.952;2023-04-01T21:18:47;0.43;;;0.43;;
64375;SDS011;50700;55.416;12.952;2023-04-01T21:21:33;0.35;;;0.35;;
64375;SDS011;50700;55.416;12.952;2023-04-01T21:32:11;0.40;;;0.40;;
64375;SDS011;50700;55.416;12.952;2023-04-01T21:34:42;0.73;;;0.43;;
64375;SDS011;50700;55.416;12.952;2023-04-01T21:42:42;1.15;;;0.77;;
64375;SDS011;50700;55.416;12.952;2023-04-01T21:50:19;1.33;;;1.08;;
64375;SDS011;50700;55.416;12.952;2023-04-01T22:06:10;1.33;;;0.60;;
64375;SDS011;50700;55.416;12.952;2023-04-01T22:11:14;0.45;;;0.40;;
64375;SDS011;50700;55.416;12.952;2023-04-01T22:18:50;1.58;;;0.60;;
64375;SDS011;50700;55.416;12.952;2023-04-01T22:21:26;0.93;;;0.55;;
64375;SDS011;50700;55.416;12.952;2023-04-01T22:23:56;0.40;;;0.40;;
64375;SDS011;50700;55.416;12.952;2023-04-01T22:31:44;1.90;;;0.60;;
64375;SDS011;50700;55.416;12.952;2023-04-01T22:34:15;0.73;;;0.52;;
64375;SDS011;50700;55.416;12.952;2023-04-01T22:44:43;0.40;;;0.40;;
64375;SDS011;50700;55.416;12.952;2023-04-01T22:50:07;0.30;;;0.30;;
64375;SDS011;50700;55.416;12.952;2023-04-01T22:52:40;0.47;;;0.47;;
64375;SDS011;50700;55.416;12.952;2023-04-01T22:57:38;0.35;;;0.35;;
64375;SDS011;50700;55.416;12.952;2023-04-01T23:05:19;0.60;;;0.40;;
64375;SDS011;50700;55.416;12.952;2023-04-01T23:08:00;1.48;;;0.80;;
64375;SDS011;50700;55.416;12.952;2023-04-01T23:11:03;0.70;;;0.40;;
64375;SDS011;50700;55.416;12.952;2023-04-01T23:13:23;1.50;;;0.60;;
64375;SDS011;50700;55.416;12.952;2023-04-01T23:15:51;1.27;;;0.50;;
64375;SDS011;50700;55.416;12.952;2023-04-01T23:18:28;0.40;;;0.40;;
64375;SDS011;50700;55.416;12.952;2023-04-01T23:28:56;3.20;;;0.40;;
64375;SDS011;50700;55.416;12.952;2023-04-01T23:34:17;0.57;;;0.50;;
64375;SDS011;50700;55.416;12.952;2023-04-01T23:36:46;0.45;;;0.40;;
64375;SDS011;50700;55.416;12.952;2023-04-01T23:39:28;1.38;;;0.30;;
64375;SDS011;50700;55.416;12.952;2023-04-01T23:41:56;0.30;;;0.30;;
64375;SDS011;50700;55.416;12.952;2023-04-01T23:44:24;1.25;;;0.40;;
64375;SDS011;50700;55.416;12.952;2023-04-01T23:46:51;0.40;;;0.40;;
64375;SDS011;50700;55.416;12.952;2023-04-01T23:49:23;1.65;;;0.45;;
64375;SDS011;50700;55.416;12.952;2023-04-01T23:51:58;0.40;;;0.40;;
64375;SDS011;50700;55.416;12.952;2023-04-01T23:54:32;0.30;;;0.30;;
64375;SDS011;50700;55.416;12.952;2023-04-01T23:56:59;0.40;;;0.40;;
64375;SDS011;50700;55.416;12.952;2023-04-01T23:59:30;0.55;;;0.30;;
